Padre Island — WDB4436 — position and weather

sailwx.info

Track history (hours):
 
Tides and Currents Weather Stations Pressure Air Temp Water Temp Dewpoint Dewpoint Depression Visibility Wind Speed Wind Dir Waves Ship Positions

Padre Island

Owner: Great Lakes Dredge & Dock Company, Oak Brook, IL. More information available from US FCC via Universal Licensing System and Coast Guard Vessel Documentation Center.

Last reported at 2014-Oct-30 10:33 UTC. Time now 2014-Oct-30 13:55 UTC.
Position N 39°53' W 075°12'.

Length 86 m; draft 19.6 m.

Type: Dredging. MMSI: 367525000.

Date/timePositionNaut miles runAvg speedWind from/ knotsBaromVisibWave heightAir tempDewpointWater temp
2014-Oct-30 10:33N 39°53' W 075°12'3 3.0
2014-Oct-30 09:33N 39°54' W 075°08'3 2.1
2014-Oct-30 08:04N 39°53' W 075°12'0 0.0
2014-Oct-30 07:33N 39°53' W 075°12'  
2014-Oct-25 13:33N 39°52' W 075°12'0 0.0
2014-Oct-25 12:33N 39°52' W 075°12'0 0.0
2014-Oct-25 11:30N 39°52' W 075°12'5 3.6
2014-Oct-25 10:06N 39°51' W 075°19'5 8.6
2014-Oct-25 09:33N 39°49' W 075°24'9 8.7
2014-Oct-25 08:33N 39°42' W 075°31'8 7.9
2014-Oct-25 07:33N 39°34' W 075°33'9 8.6
2014-Oct-25 06:33N 39°25' W 075°31'  
2014-Oct-21 20:11N 27°06' W 080°03'4 6.7
2014-Oct-21 19:33N 27°01' W 080°03'7 7.0
2014-Oct-21 18:33N 26°55' W 080°02'8 7.4
2014-Oct-21 17:32N 26°47' W 080°00'1 0.6
2014-Oct-21 15:21N 26°46' W 080°02'0 0.0
2014-Oct-21 14:31N 26°46' W 080°02'0 0.0
2014-Oct-21 13:17N 26°46' W 080°02'2 2.6
2014-Oct-21 12:33N 26°47' W 080°00'1 0.8
2014-Oct-21 11:22N 26°47' W 079°59'1 0.6
2014-Oct-21 10:32N 26°46' W 079°60'1 0.5
2014-Oct-21 09:25N 26°46' W 080°00'3 3.4
2014-Oct-21 08:33N 26°49' W 080°01'6 6.2
2014-Oct-21 07:33N 26°56' W 080°02'  
Track history (hours):
 
Tides and Currents Weather Stations Pressure Air Temp Water Temp Dewpoint Dewpoint Depression Visibility Wind Speed Wind Dir Waves Ship Positions

Padre Island

Owner: Great Lakes Dredge & Dock Company, Oak Brook, IL. More information available from US FCC via Universal Licensing System and Coast Guard Vessel Documentation Center.

Last reported at 2014-Oct-30 10:33 UTC. Time now 2014-Oct-30 13:55 UTC.
Position N 39°53' W 075°12'.

Length 86 m; draft 19.6 m.

Type: Dredging. MMSI: 367525000.

Date/timePositionNaut miles runAvg speedWind from/ knotsBaromVisibWave heightAir tempDewpointWater temp
2014-Oct-30 10:33N 39°53' W 075°12'3 3.0
2014-Oct-30 09:33N 39°54' W 075°08'3 2.1
2014-Oct-30 08:04N 39°53' W 075°12'0 0.0
2014-Oct-30 07:33N 39°53' W 075°12'  
2014-Oct-25 13:33N 39°52' W 075°12'0 0.0
2014-Oct-25 12:33N 39°52' W 075°12'0 0.0
2014-Oct-25 11:30N 39°52' W 075°12'5 3.6
2014-Oct-25 10:06N 39°51' W 075°19'5 8.6
2014-Oct-25 09:33N 39°49' W 075°24'9 8.7
2014-Oct-25 08:33N 39°42' W 075°31'8 7.9
2014-Oct-25 07:33N 39°34' W 075°33'9 8.6
2014-Oct-25 06:33N 39°25' W 075°31'  
2014-Oct-21 20:11N 27°06' W 080°03'4 6.7
2014-Oct-21 19:33N 27°01' W 080°03'7 7.0
2014-Oct-21 18:33N 26°55' W 080°02'8 7.4
2014-Oct-21 17:32N 26°47' W 080°00'1 0.6
2014-Oct-21 15:21N 26°46' W 080°02'0 0.0
2014-Oct-21 14:31N 26°46' W 080°02'0 0.0
2014-Oct-21 13:17N 26°46' W 080°02'2 2.6
2014-Oct-21 12:33N 26°47' W 080°00'1 0.8
2014-Oct-21 11:22N 26°47' W 079°59'1 0.6
2014-Oct-21 10:32N 26°46' W 079°60'1 0.5
2014-Oct-21 09:25N 26°46' W 080°00'3 3.4
2014-Oct-21 08:33N 26°49' W 080°01'6 6.2
2014-Oct-21 07:33N 26°56' W 080°02'  

Dump ship's entire track history